sensor_id;sensor_type;location;lat;lon;timestamp;temperature;humidity
18291;DHT22;9271;48.590;8.866;2023-03-13T00:00:57;11.30;94.50
18291;DHT22;9271;48.590;8.866;2023-03-13T00:03:24;11.30;94.60
18291;DHT22;9271;48.590;8.866;2023-03-13T00:05:55;11.40;94.60
18291;DHT22;9271;48.590;8.866;2023-03-13T00:08:22;11.30;94.60
18291;DHT22;9271;48.590;8.866;2023-03-13T00:10:50;11.30;94.80
18291;DHT22;9271;48.590;8.866;2023-03-13T00:13:16;11.30;94.60
18291;DHT22;9271;48.590;8.866;2023-03-13T00:15:43;11.40;94.40
18291;DHT22;9271;48.590;8.866;2023-03-13T00:18:10;11.50;94.40
18291;DHT22;9271;48.590;8.866;2023-03-13T00:20:36;11.70;94.20
18291;DHT22;9271;48.590;8.866;2023-03-13T00:23:03;11.70;93.80
18291;DHT22;9271;48.590;8.866;2023-03-13T00:25:30;11.50;94.30
18291;DHT22;9271;48.590;8.866;2023-03-13T00:27:57;11.40;94.50
18291;DHT22;9271;48.590;8.866;2023-03-13T00:30:24;11.30;94.60
18291;DHT22;9271;48.590;8.866;2023-03-13T00:32:51;11.10;94.70
18291;DHT22;9271;48.590;8.866;2023-03-13T00:35:17;11.10;94.60
18291;DHT22;9271;48.590;8.866;2023-03-13T00:37:44;11.10;94.70
18291;DHT22;9271;48.590;8.866;2023-03-13T00:40:11;10.90;95.20
18291;DHT22;9271;48.590;8.866;2023-03-13T00:42:38;10.90;95.20
18291;DHT22;9271;48.590;8.866;2023-03-13T00:45:06;10.80;95.40
18291;DHT22;9271;48.590;8.866;2023-03-13T00:47:33;10.80;95.40
18291;DHT22;9271;48.590;8.866;2023-03-13T00:50:00;10.80;95.50
18291;DHT22;9271;48.590;8.866;2023-03-13T00:52:26;10.70;95.60
18291;DHT22;9271;48.590;8.866;2023-03-13T00:54:53;10.70;95.60
18291;DHT22;9271;48.590;8.866;2023-03-13T00:57:20;10.70;95.80
18291;DHT22;9271;48.590;8.866;2023-03-13T00:59:46;10.90;95.40
18291;DHT22;9271;48.590;8.866;2023-03-13T01:02:14;10.80;95.50
18291;DHT22;9271;48.590;8.866;2023-03-13T01:04:41;10.80;95.50
18291;DHT22;9271;48.590;8.866;2023-03-13T01:07:08;11.00;95.30
18291;DHT22;9271;48.590;8.866;2023-03-13T01:09:34;11.10;95.00
18291;DHT22;9271;48.590;8.866;2023-03-13T01:12:01;11.00;95.20
18291;DHT22;9271;48.590;8.866;2023-03-13T01:14:27;10.80;95.50
18291;DHT22;9271;48.590;8.866;2023-03-13T01:16:54;10.80;95.50
18291;DHT22;9271;48.590;8.866;2023-03-13T01:19:22;10.70;95.50
18291;DHT22;9271;48.590;8.866;2023-03-13T01:21:49;10.20;96.50
18291;DHT22;9271;48.590;8.866;2023-03-13T01:24:15;10.20;96.80
18291;DHT22;9271;48.590;8.866;2023-03-13T01:26:43;10.30;96.60
18291;DHT22;9271;48.590;8.866;2023-03-13T01:29:10;10.40;96.50
18291;DHT22;9271;48.590;8.866;2023-03-13T01:31:36;10.50;96.30
18291;DHT22;9271;48.590;8.866;2023-03-13T01:34:04;10.40;96.40
18291;DHT22;9271;48.590;8.866;2023-03-13T01:36:34;10.50;96.20
18291;DHT22;9271;48.590;8.866;2023-03-13T01:39:01;10.60;95.90
18291;DHT22;9271;48.590;8.866;2023-03-13T01:41:29;10.50;96.10
18291;DHT22;9271;48.590;8.866;2023-03-13T01:43:56;10.60;95.90
18291;DHT22;9271;48.590;8.866;2023-03-13T01:46:24;10.40;96.30
18291;DHT22;9271;48.590;8.866;2023-03-13T01:48:54;10.20;96.60
18291;DHT22;9271;48.590;8.866;2023-03-13T01:51:23;9.90;97.40
18291;DHT22;9271;48.590;8.866;2023-03-13T01:53:55;9.90;97.30
18291;DHT22;9271;48.590;8.866;2023-03-13T01:56:28;10.00;96.90
18291;DHT22;9271;48.590;8.866;2023-03-13T01:58:56;10.10;96.60
18291;DHT22;9271;48.590;8.866;2023-03-13T02:01:24;9.90;97.50
18291;DHT22;9271;48.590;8.866;2023-03-13T02:03:51;9.90;97.80
18291;DHT22;9271;48.590;8.866;2023-03-13T02:06:18;10.00;97.30
18291;DHT22;9271;48.590;8.866;2023-03-13T02:08:49;10.00;97.30
18291;DHT22;9271;48.590;8.866;2023-03-13T02:11:24;10.00;97.30
18291;DHT22;9271;48.590;8.866;2023-03-13T02:13:53;10.10;97.20
18291;DHT22;9271;48.590;8.866;2023-03-13T02:16:21;10.00;97.20
18291;DHT22;9271;48.590;8.866;2023-03-13T02:18:49;10.10;97.20
18291;DHT22;9271;48.590;8.866;2023-03-13T02:21:21;10.10;96.90
18291;DHT22;9271;48.590;8.866;2023-03-13T02:23:53;10.30;96.70
18291;DHT22;9271;48.590;8.866;2023-03-13T02:26:22;10.30;96.60
18291;DHT22;9271;48.590;8.866;2023-03-13T02:28:49;10.30;96.60
18291;DHT22;9271;48.590;8.866;2023-03-13T02:31:16;10.30;96.60
18291;DHT22;9271;48.590;8.866;2023-03-13T02:33:43;10.30;96.90
18291;DHT22;9271;48.590;8.866;2023-03-13T02:36:10;10.30;96.80
18291;DHT22;9271;48.590;8.866;2023-03-13T02:38:40;10.40;96.90
18291;DHT22;9271;48.590;8.866;2023-03-13T02:41:09;10.50;97.10
18291;DHT22;9271;48.590;8.866;2023-03-13T02:43:38;10.50;97.40
18291;DHT22;9271;48.590;8.866;2023-03-13T02:46:07;10.60;97.10
18291;DHT22;9271;48.590;8.866;2023-03-13T02:48:36;10.60;97.00
18291;DHT22;9271;48.590;8.866;2023-03-13T02:51:06;10.70;96.90
18291;DHT22;9271;48.590;8.866;2023-03-13T02:53:35;10.80;96.60
18291;DHT22;9271;48.590;8.866;2023-03-13T02:56:03;10.80;96.80
18291;DHT22;9271;48.590;8.866;2023-03-13T02:58:40;10.90;96.40
18291;DHT22;9271;48.590;8.866;2023-03-13T03:01:07;11.10;96.30
18291;DHT22;9271;48.590;8.866;2023-03-13T03:03:34;11.10;96.20
18291;DHT22;9271;48.590;8.866;2023-03-13T03:06:02;11.10;96.40
18291;DHT22;9271;48.590;8.866;2023-03-13T03:08:29;11.30;96.00
18291;DHT22;9271;48.590;8.866;2023-03-13T03:10:55;11.30;95.80
18291;DHT22;9271;48.590;8.866;2023-03-13T03:13:22;10.70;96.60
18291;DHT22;9271;48.590;8.866;2023-03-13T03:15:50;10.30;98.00
18291;DHT22;9271;48.590;8.866;2023-03-13T03:18:17;10.40;97.80
18291;DHT22;9271;48.590;8.866;2023-03-13T03:20:43;10.30;98.80
18291;DHT22;9271;48.590;8.866;2023-03-13T03:23:10;10.50;98.90
18291;DHT22;9271;48.590;8.866;2023-03-13T03:25:37;10.70;99.90
18291;DHT22;9271;48.590;8.866;2023-03-13T03:28:04;11.00;99.90
18291;DHT22;9271;48.590;8.866;2023-03-13T03:30:30;11.30;99.90
18291;DHT22;9271;48.590;8.866;2023-03-13T03:32:58;11.50;99.90
18291;DHT22;9271;48.590;8.866;2023-03-13T03:35:25;11.60;99.90
18291;DHT22;9271;48.590;8.866;2023-03-13T03:37:52;11.80;99.90
18291;DHT22;9271;48.590;8.866;2023-03-13T03:40:18;11.70;99.90
18291;DHT22;9271;48.590;8.866;2023-03-13T03:42:45;11.70;99.90
18291;DHT22;9271;48.590;8.866;2023-03-13T03:45:12;11.80;99.90
18291;DHT22;9271;48.590;8.866;2023-03-13T03:47:39;11.90;99.90
18291;DHT22;9271;48.590;8.866;2023-03-13T03:50:08;11.90;99.90
18291;DHT22;9271;48.590;8.866;2023-03-13T03:52:36;12.00;99.90
18291;DHT22;9271;48.590;8.866;2023-03-13T03:55:03;12.00;99.90
18291;DHT22;9271;48.590;8.866;2023-03-13T03:57:29;11.90;99.90
18291;DHT22;9271;48.590;8.866;2023-03-13T03:59:56;11.90;99.90
18291;DHT22;9271;48.590;8.866;2023-03-13T04:02:23;11.90;99.90
18291;DHT22;9271;48.590;8.866;2023-03-13T04:04:49;11.90;99.90
18291;DHT22;9271;48.590;8.866;2023-03-13T04:07:17;12.10;99.90
18291;DHT22;9271;48.590;8.866;2023-03-13T04:09:44;12.00;99.90
18291;DHT22;9271;48.590;8.866;2023-03-13T04:12:10;11.90;99.90
18291;DHT22;9271;48.590;8.866;2023-03-13T04:14:37;11.80;99.90
18291;DHT22;9271;48.590;8.866;2023-03-13T04:17:04;11.90;99.90
18291;DHT22;9271;48.590;8.866;2023-03-13T04:19:30;11.80;99.90
18291;DHT22;9271;48.590;8.866;2023-03-13T04:21:57;11.80;99.90
18291;DHT22;9271;48.590;8.866;2023-03-13T04:24:25;12.10;99.90
18291;DHT22;9271;48.590;8.866;2023-03-13T04:26:51;12.30;99.90
18291;DHT22;9271;48.590;8.866;2023-03-13T04:29:19;12.20;99.90
18291;DHT22;9271;48.590;8.866;2023-03-13T04:31:45;12.20;99.90
18291;DHT22;9271;48.590;8.866;2023-03-13T04:34:12;12.10;99.90
18291;DHT22;9271;48.590;8.866;2023-03-13T04:36:39;12.00;99.90
18291;DHT22;9271;48.590;8.866;2023-03-13T04:39:05;12.20;99.90
18291;DHT22;9271;48.590;8.866;2023-03-13T04:41:33;12.00;99.90
18291;DHT22;9271;48.590;8.866;2023-03-13T04:44:00;12.10;99.90
18291;DHT22;9271;48.590;8.866;2023-03-13T04:46:26;12.20;99.90
18291;DHT22;9271;48.590;8.866;2023-03-13T04:48:53;12.10;99.90
18291;DHT22;9271;48.590;8.866;2023-03-13T04:51:20;12.00;99.90
18291;DHT22;9271;48.590;8.866;2023-03-13T04:53:46;12.10;99.90
18291;DHT22;9271;48.590;8.866;2023-03-13T04:56:21;12.10;99.90
18291;DHT22;9271;48.590;8.866;2023-03-13T04:58:50;12.00;99.90
18291;DHT22;9271;48.590;8.866;2023-03-13T05:01:17;12.10;99.90
18291;DHT22;9271;48.590;8.866;2023-03-13T05:03:43;12.20;99.90
18291;DHT22;9271;48.590;8.866;2023-03-13T05:06:10;12.30;99.90
18291;DHT22;9271;48.590;8.866;2023-03-13T05:08:37;12.20;99.90
18291;DHT22;9271;48.590;8.866;2023-03-13T05:11:04;12.20;99.90
18291;DHT22;9271;48.590;8.866;2023-03-13T05:13:31;12.10;99.90
18291;DHT22;9271;48.590;8.866;2023-03-13T05:15:59;12.10;99.90
18291;DHT22;9271;48.590;8.866;2023-03-13T05:18:26;12.10;99.90
18291;DHT22;9271;48.590;8.866;2023-03-13T05:20:53;12.10;99.90
18291;DHT22;9271;48.590;8.866;2023-03-13T05:23:19;12.20;99.90
18291;DHT22;9271;48.590;8.866;2023-03-13T05:25:46;12.20;99.90
18291;DHT22;9271;48.590;8.866;2023-03-13T05:28:13;12.20;99.90
18291;DHT22;9271;48.590;8.866;2023-03-13T05:30:39;12.30;99.90
18291;DHT22;9271;48.590;8.866;2023-03-13T05:33:07;12.30;99.90
18291;DHT22;9271;48.590;8.866;2023-03-13T05:35:34;12.20;99.90
18291;DHT22;9271;48.590;8.866;2023-03-13T05:38:01;12.30;99.90
18291;DHT22;9271;48.590;8.866;2023-03-13T05:40:27;12.40;99.90
18291;DHT22;9271;48.590;8.866;2023-03-13T05:42:54;12.30;99.90
18291;DHT22;9271;48.590;8.866;2023-03-13T05:45:21;12.30;99.90
18291;DHT22;9271;48.590;8.866;2023-03-13T05:47:47;12.40;99.90
18291;DHT22;9271;48.590;8.866;2023-03-13T05:50:15;12.40;99.90
18291;DHT22;9271;48.590;8.866;2023-03-13T05:52:42;12.20;99.90
18291;DHT22;9271;48.590;8.866;2023-03-13T05:55:09;12.20;99.90
18291;DHT22;9271;48.590;8.866;2023-03-13T05:57:36;12.30;99.90
18291;DHT22;9271;48.590;8.866;2023-03-13T06:00:04;12.10;99.90
18291;DHT22;9271;48.590;8.866;2023-03-13T06:02:31;12.20;99.90
18291;DHT22;9271;48.590;8.866;2023-03-13T06:04:58;12.40;99.90
18291;DHT22;9271;48.590;8.866;2023-03-13T06:07:26;12.40;99.90
18291;DHT22;9271;48.590;8.866;2023-03-13T06:09:52;12.30;99.90
18291;DHT22;9271;48.590;8.866;2023-03-13T06:12:19;12.30;99.90
18291;DHT22;9271;48.590;8.866;2023-03-13T06:14:46;12.20;99.90
18291;DHT22;9271;48.590;8.866;2023-03-13T06:17:12;12.20;99.90
18291;DHT22;9271;48.590;8.866;2023-03-13T06:19:39;12.10;99.90
18291;DHT22;9271;48.590;8.866;2023-03-13T06:22:06;12.20;99.90
18291;DHT22;9271;48.590;8.866;2023-03-13T06:24:34;12.40;99.90
18291;DHT22;9271;48.590;8.866;2023-03-13T06:27:00;12.40;99.90
18291;DHT22;9271;48.590;8.866;2023-03-13T06:29:27;12.50;99.90
18291;DHT22;9271;48.590;8.866;2023-03-13T06:31:54;12.60;99.90
18291;DHT22;9271;48.590;8.866;2023-03-13T06:34:20;12.70;99.90
18291;DHT22;9271;48.590;8.866;2023-03-13T06:36:47;12.40;99.90
18291;DHT22;9271;48.590;8.866;2023-03-13T06:39:13;12.50;99.90
18291;DHT22;9271;48.590;8.866;2023-03-13T06:41:41;12.50;99.90
18291;DHT22;9271;48.590;8.866;2023-03-13T06:44:08;12.60;99.90
18291;DHT22;9271;48.590;8.866;2023-03-13T06:46:35;12.90;99.90
18291;DHT22;9271;48.590;8.866;2023-03-13T06:49:01;12.70;99.90
18291;DHT22;9271;48.590;8.866;2023-03-13T06:51:30;12.50;99.90
18291;DHT22;9271;48.590;8.866;2023-03-13T06:53:57;12.40;99.90
18291;DHT22;9271;48.590;8.866;2023-03-13T06:56:24;12.40;99.90
18291;DHT22;9271;48.590;8.866;2023-03-13T06:58:52;12.50;99.90
18291;DHT22;9271;48.590;8.866;2023-03-13T07:01:19;12.50;99.90
18291;DHT22;9271;48.590;8.866;2023-03-13T07:03:46;12.70;99.90
18291;DHT22;9271;48.590;8.866;2023-03-13T07:06:14;12.70;99.90
18291;DHT22;9271;48.590;8.866;2023-03-13T07:08:41;12.90;99.90
18291;DHT22;9271;48.590;8.866;2023-03-13T07:11:10;13.10;99.90
18291;DHT22;9271;48.590;8.866;2023-03-13T07:13:37;12.90;99.90
18291;DHT22;9271;48.590;8.866;2023-03-13T07:16:07;12.80;99.90
18291;DHT22;9271;48.590;8.866;2023-03-13T07:18:35;12.90;99.90
18291;DHT22;9271;48.590;8.866;2023-03-13T07:21:04;13.00;99.90
18291;DHT22;9271;48.590;8.866;2023-03-13T07:23:31;13.10;99.90
18291;DHT22;9271;48.590;8.866;2023-03-13T07:26:00;13.10;99.90
18291;DHT22;9271;48.590;8.866;2023-03-13T07:28:27;13.00;99.90
18291;DHT22;9271;48.590;8.866;2023-03-13T07:31:02;13.00;99.90
18291;DHT22;9271;48.590;8.866;2023-03-13T07:33:30;13.30;99.90
18291;DHT22;9271;48.590;8.866;2023-03-13T07:35:57;13.40;99.90
18291;DHT22;9271;48.590;8.866;2023-03-13T07:38:23;13.50;99.90
18291;DHT22;9271;48.590;8.866;2023-03-13T07:40:51;13.40;99.90
18291;DHT22;9271;48.590;8.866;2023-03-13T07:43:18;13.40;99.90
18291;DHT22;9271;48.590;8.866;2023-03-13T07:45:55;13.50;99.90
18291;DHT22;9271;48.590;8.866;2023-03-13T07:48:23;13.40;99.90
18291;DHT22;9271;48.590;8.866;2023-03-13T07:50:53;13.40;99.90
18291;DHT22;9271;48.590;8.866;2023-03-13T07:53:20;13.50;99.90
18291;DHT22;9271;48.590;8.866;2023-03-13T07:55:58;13.50;99.90
18291;DHT22;9271;48.590;8.866;2023-03-13T07:58:26;13.20;99.90
18291;DHT22;9271;48.590;8.866;2023-03-13T08:00:53;13.10;99.90
18291;DHT22;9271;48.590;8.866;2023-03-13T08:03:21;13.40;99.90
18291;DHT22;9271;48.590;8.866;2023-03-13T08:05:57;13.30;99.90
18291;DHT22;9271;48.590;8.866;2023-03-13T08:08:24;13.40;99.90
18291;DHT22;9271;48.590;8.866;2023-03-13T08:10:50;13.30;99.90
18291;DHT22;9271;48.590;8.866;2023-03-13T08:13:17;13.40;99.90
18291;DHT22;9271;48.590;8.866;2023-03-13T08:15:44;13.50;99.90
18291;DHT22;9271;48.590;8.866;2023-03-13T08:18:10;13.70;99.90
18291;DHT22;9271;48.590;8.866;2023-03-13T08:20:37;13.90;99.90
18291;DHT22;9271;48.590;8.866;2023-03-13T08:23:05;13.90;99.90
18291;DHT22;9271;48.590;8.866;2023-03-13T08:25:32;14.20;99.90
18291;DHT22;9271;48.590;8.866;2023-03-13T08:27:58;14.20;99.90
18291;DHT22;9271;48.590;8.866;2023-03-13T08:30:25;14.10;99.90
18291;DHT22;9271;48.590;8.866;2023-03-13T08:32:52;14.00;99.90
18291;DHT22;9271;48.590;8.866;2023-03-13T08:35:18;13.90;99.90
18291;DHT22;9271;48.590;8.866;2023-03-13T08:37:45;14.00;99.90
18291;DHT22;9271;48.590;8.866;2023-03-13T08:40:13;13.80;99.90
18291;DHT22;9271;48.590;8.866;2023-03-13T08:42:40;14.00;99.90
18291;DHT22;9271;48.590;8.866;2023-03-13T08:45:07;14.10;99.90
18291;DHT22;9271;48.590;8.866;2023-03-13T08:47:34;14.50;99.90
18291;DHT22;9271;48.590;8.866;2023-03-13T08:50:01;14.70;99.90
18291;DHT22;9271;48.590;8.866;2023-03-13T08:52:27;14.40;99.90
18291;DHT22;9271;48.590;8.866;2023-03-13T08:54:54;14.50;99.90
18291;DHT22;9271;48.590;8.866;2023-03-13T08:57:22;14.80;99.90
18291;DHT22;9271;48.590;8.866;2023-03-13T08:59:49;14.70;99.90
18291;DHT22;9271;48.590;8.866;2023-03-13T09:02:16;14.60;99.90
18291;DHT22;9271;48.590;8.866;2023-03-13T09:04:46;14.80;99.90
18291;DHT22;9271;48.590;8.866;2023-03-13T09:07:13;14.80;99.90
18291;DHT22;9271;48.590;8.866;2023-03-13T09:09:40;15.10;99.90
18291;DHT22;9271;48.590;8.866;2023-03-13T09:12:07;14.80;99.90
18291;DHT22;9271;48.590;8.866;2023-03-13T09:14:35;14.90;99.90
18291;DHT22;9271;48.590;8.866;2023-03-13T09:17:02;15.00;99.90
18291;DHT22;9271;48.590;8.866;2023-03-13T09:19:29;15.30;99.30
18291;DHT22;9271;48.590;8.866;2023-03-13T09:21:55;15.40;99.00
18291;DHT22;9271;48.590;8.866;2023-03-13T09:24:22;16.20;98.20
18291;DHT22;9271;48.590;8.866;2023-03-13T09:26:48;16.70;96.90
18291;DHT22;9271;48.590;8.866;2023-03-13T09:29:15;16.90;96.60
18291;DHT22;9271;48.590;8.866;2023-03-13T09:31:43;16.70;96.00
18291;DHT22;9271;48.590;8.866;2023-03-13T09:34:10;16.40;97.30
18291;DHT22;9271;48.590;8.866;2023-03-13T09:36:36;17.20;95.90
18291;DHT22;9271;48.590;8.866;2023-03-13T09:39:03;17.20;95.30
18291;DHT22;9271;48.590;8.866;2023-03-13T09:41:34;17.60;95.20
18291;DHT22;9271;48.590;8.866;2023-03-13T09:44:07;18.90;94.00
18291;DHT22;9271;48.590;8.866;2023-03-13T09:46:38;20.60;91.10
18291;DHT22;9271;48.590;8.866;2023-03-13T09:49:12;20.80;88.90
18291;DHT22;9271;48.590;8.866;2023-03-13T09:51:43;19.80;90.20
18291;DHT22;9271;48.590;8.866;2023-03-13T09:54:21;19.70;90.50
18291;DHT22;9271;48.590;8.866;2023-03-13T09:56:52;18.60;91.80
18291;DHT22;9271;48.590;8.866;2023-03-13T09:59:25;18.90;91.80
18291;DHT22;9271;48.590;8.866;2023-03-13T10:01:56;19.30;91.20
18291;DHT22;9271;48.590;8.866;2023-03-13T10:04:29;19.90;89.60
18291;DHT22;9271;48.590;8.866;2023-03-13T10:06:58;20.00;89.40
18291;DHT22;9271;48.590;8.866;2023-03-13T10:09:28;21.80;86.40
18291;DHT22;9271;48.590;8.866;2023-03-13T10:12:03;23.30;80.90
18291;DHT22;9271;48.590;8.866;2023-03-13T10:14:38;23.50;76.80
18291;DHT22;9271;48.590;8.866;2023-03-13T10:17:13;23.30;76.70
18291;DHT22;9271;48.590;8.866;2023-03-13T10:19:42;23.30;75.90
18291;DHT22;9271;48.590;8.866;2023-03-13T10:22:13;23.10;74.70
18291;DHT22;9271;48.590;8.866;2023-03-13T10:24:46;23.50;74.30
18291;DHT22;9271;48.590;8.866;2023-03-13T10:27:15;23.40;76.20
18291;DHT22;9271;48.590;8.866;2023-03-13T10:29:42;22.60;75.50
18291;DHT22;9271;48.590;8.866;2023-03-13T10:32:11;20.60;81.20
18291;DHT22;9271;48.590;8.866;2023-03-13T10:34:52;20.20;83.60
18291;DHT22;9271;48.590;8.866;2023-03-13T10:37:21;19.70;84.30
18291;DHT22;9271;48.590;8.866;2023-03-13T10:39:48;19.70;84.60
18291;DHT22;9271;48.590;8.866;2023-03-13T10:42:23;19.00;86.20
18291;DHT22;9271;48.590;8.866;2023-03-13T10:44:55;19.10;86.40
18291;DHT22;9271;48.590;8.866;2023-03-13T10:47:23;19.80;85.80
18291;DHT22;9271;48.590;8.866;2023-03-13T10:49:55;19.30;86.00
18291;DHT22;9271;48.590;8.866;2023-03-13T10:52:29;18.80;88.10
18291;DHT22;9271;48.590;8.866;2023-03-13T10:54:59;18.60;87.50
18291;DHT22;9271;48.590;8.866;2023-03-13T10:57:30;18.60;88.40
18291;DHT22;9271;48.590;8.866;2023-03-13T10:59:57;20.10;86.50
18291;DHT22;9271;48.590;8.866;2023-03-13T11:02:30;21.90;81.90
18291;DHT22;9271;48.590;8.866;2023-03-13T11:04:59;23.80;76.40
18291;DHT22;9271;48.590;8.866;2023-03-13T11:07:28;24.40;72.30
18291;DHT22;9271;48.590;8.866;2023-03-13T11:09:59;23.60;72.30
18291;DHT22;9271;48.590;8.866;2023-03-13T11:12:27;22.90;74.90
18291;DHT22;9271;48.590;8.866;2023-03-13T11:14:58;25.00;72.10
18291;DHT22;9271;48.590;8.866;2023-03-13T11:17:31;27.10;63.70
18291;DHT22;9271;48.590;8.866;2023-03-13T11:20:11;27.10;62.30
18291;DHT22;9271;48.590;8.866;2023-03-13T11:22:55;27.30;61.80
18291;DHT22;9271;48.590;8.866;2023-03-13T11:25:30;27.50;58.60
18291;DHT22;9271;48.590;8.866;2023-03-13T11:28:24;27.40;58.00
18291;DHT22;9271;48.590;8.866;2023-03-13T11:31:02;26.10;59.70
18291;DHT22;9271;48.590;8.866;2023-03-13T11:33:47;25.70;60.00
18291;DHT22;9271;48.590;8.866;2023-03-13T11:36:27;25.20;61.40
18291;DHT22;9271;48.590;8.866;2023-03-13T11:39:02;28.00;58.10
18291;DHT22;9271;48.590;8.866;2023-03-13T11:41:42;28.80;53.60
18291;DHT22;9271;48.590;8.866;2023-03-13T11:44:22;27.70;56.60
18291;DHT22;9271;48.590;8.866;2023-03-13T11:47:10;28.70;53.50
18291;DHT22;9271;48.590;8.866;2023-03-13T11:49:56;28.30;54.40
18291;DHT22;9271;48.590;8.866;2023-03-13T11:52:40;28.40;54.10
18291;DHT22;9271;48.590;8.866;2023-03-13T11:55:24;28.00;51.80
18291;DHT22;9271;48.590;8.866;2023-03-13T11:58:03;25.90;56.50
18291;DHT22;9271;48.590;8.866;2023-03-13T12:00:37;25.30;57.00
18291;DHT22;9271;48.590;8.866;2023-03-13T12:03:10;26.00;56.70
18291;DHT22;9271;48.590;8.866;2023-03-13T12:05:43;25.90;56.20
18291;DHT22;9271;48.590;8.866;2023-03-13T12:08:16;26.10;55.90
18291;DHT22;9271;48.590;8.866;2023-03-13T12:10:46;26.40;55.00
18291;DHT22;9271;48.590;8.866;2023-03-13T12:13:18;25.90;55.20
18291;DHT22;9271;48.590;8.866;2023-03-13T12:15:48;24.50;57.20
18291;DHT22;9271;48.590;8.866;2023-03-13T12:18:19;24.10;58.80
18291;DHT22;9271;48.590;8.866;2023-03-13T12:20:52;25.30;56.90
18291;DHT22;9271;48.590;8.866;2023-03-13T12:23:28;25.30;56.00
18291;DHT22;9271;48.590;8.866;2023-03-13T12:26:03;25.70;56.30
18291;DHT22;9271;48.590;8.866;2023-03-13T12:28:35;25.60;56.00
18291;DHT22;9271;48.590;8.866;2023-03-13T12:31:16;24.60;57.10
18291;DHT22;9271;48.590;8.866;2023-03-13T12:33:49;24.80;56.90
18291;DHT22;9271;48.590;8.866;2023-03-13T12:36:20;24.70;58.60
18291;DHT22;9271;48.590;8.866;2023-03-13T12:38:54;25.20;56.30
18291;DHT22;9271;48.590;8.866;2023-03-13T12:41:25;25.90;56.20
18291;DHT22;9271;48.590;8.866;2023-03-13T12:43:54;26.00;54.40
18291;DHT22;9271;48.590;8.866;2023-03-13T12:46:35;25.30;55.20
18291;DHT22;9271;48.590;8.866;2023-03-13T12:52:16;25.60;55.70
18291;DHT22;9271;48.590;8.866;2023-03-13T12:54:56;26.90;53.80
18291;DHT22;9271;48.590;8.866;2023-03-13T13:00:34;27.40;51.00
18291;DHT22;9271;48.590;8.866;2023-03-13T13:03:05;26.20;51.90
18291;DHT22;9271;48.590;8.866;2023-03-13T13:05:34;24.90;55.00
18291;DHT22;9271;48.590;8.866;2023-03-13T13:08:01;24.90;55.50
18291;DHT22;9271;48.590;8.866;2023-03-13T13:10:30;25.70;54.30
18291;DHT22;9271;48.590;8.866;2023-03-13T13:13:24;25.80;54.00
18291;DHT22;9271;48.590;8.866;2023-03-13T13:15:59;24.90;55.10
18291;DHT22;9271;48.590;8.866;2023-03-13T13:18:28;24.90;56.20
18291;DHT22;9271;48.590;8.866;2023-03-13T13:21:18;25.00;54.60
18291;DHT22;9271;48.590;8.866;2023-03-13T13:23:45;23.70;56.50
18291;DHT22;9271;48.590;8.866;2023-03-13T13:26:50;23.30;57.50
18291;DHT22;9271;48.590;8.866;2023-03-13T13:32:35;24.10;56.50
18291;DHT22;9271;48.590;8.866;2023-03-13T13:35:05;23.80;56.70
18291;DHT22;9271;48.590;8.866;2023-03-13T13:37:44;22.90;57.00
18291;DHT22;9271;48.590;8.866;2023-03-13T13:40:24;22.60;57.80
18291;DHT22;9271;48.590;8.866;2023-03-13T13:42:54;23.20;57.00
18291;DHT22;9271;48.590;8.866;2023-03-13T13:45:29;23.90;54.60
18291;DHT22;9271;48.590;8.866;2023-03-13T13:48:24;23.80;54.30
18291;DHT22;9271;48.590;8.866;2023-03-13T13:54:00;25.70;52.60
18291;DHT22;9271;48.590;8.866;2023-03-13T13:56:37;24.40;51.80
18291;DHT22;9271;48.590;8.866;2023-03-13T13:59:24;23.70;54.80
18291;DHT22;9271;48.590;8.866;2023-03-13T14:02:13;24.40;53.90
18291;DHT22;9271;48.590;8.866;2023-03-13T14:04:43;25.20;53.40
18291;DHT22;9271;48.590;8.866;2023-03-13T14:07:16;24.00;54.00
18291;DHT22;9271;48.590;8.866;2023-03-13T14:09:49;23.40;55.40
18291;DHT22;9271;48.590;8.866;2023-03-13T14:12:26;22.70;56.40
18291;DHT22;9271;48.590;8.866;2023-03-13T14:15:13;23.30;56.50
18291;DHT22;9271;48.590;8.866;2023-03-13T14:17:42;24.10;54.50
18291;DHT22;9271;48.590;8.866;2023-03-13T14:20:28;23.70;55.20
18291;DHT22;9271;48.590;8.866;2023-03-13T14:22:56;24.50;55.10
18291;DHT22;9271;48.590;8.866;2023-03-13T14:25:24;25.70;52.50
18291;DHT22;9271;48.590;8.866;2023-03-13T14:27:52;25.90;51.80
18291;DHT22;9271;48.590;8.866;2023-03-13T14:30:21;25.50;51.90
18291;DHT22;9271;48.590;8.866;2023-03-13T14:32:50;24.70;54.00
18291;DHT22;9271;48.590;8.866;2023-03-13T14:35:18;24.70;54.30
18291;DHT22;9271;48.590;8.866;2023-03-13T14:37:49;25.60;52.90
18291;DHT22;9271;48.590;8.866;2023-03-13T14:40:24;26.60;51.60
18291;DHT22;9271;48.590;8.866;2023-03-13T14:42:52;25.90;52.30
18291;DHT22;9271;48.590;8.866;2023-03-13T14:45:25;25.20;53.20
18291;DHT22;9271;48.590;8.866;2023-03-13T14:47:52;25.60;53.50
18291;DHT22;9271;48.590;8.866;2023-03-13T14:50:22;25.90;52.40
18291;DHT22;9271;48.590;8.866;2023-03-13T14:52:51;25.50;52.80
18291;DHT22;9271;48.590;8.866;2023-03-13T14:55:28;25.10;54.10
18291;DHT22;9271;48.590;8.866;2023-03-13T14:57:58;25.30;53.30
18291;DHT22;9271;48.590;8.866;2023-03-13T15:00:33;25.50;53.10
18291;DHT22;9271;48.590;8.866;2023-03-13T15:03:20;25.80;52.40
18291;DHT22;9271;48.590;8.866;2023-03-13T15:05:48;25.10;53.70
18291;DHT22;9271;48.590;8.866;2023-03-13T15:08:18;25.20;54.30
18291;DHT22;9271;48.590;8.866;2023-03-13T15:10:45;24.40;54.80
18291;DHT22;9271;48.590;8.866;2023-03-13T15:13:16;24.70;55.20
18291;DHT22;9271;48.590;8.866;2023-03-13T15:15:45;24.70;54.50
18291;DHT22;9271;48.590;8.866;2023-03-13T15:18:17;25.00;54.00
18291;DHT22;9271;48.590;8.866;2023-03-13T15:20:48;25.60;53.30
18291;DHT22;9271;48.590;8.866;2023-03-13T15:23:15;24.60;54.50
18291;DHT22;9271;48.590;8.866;2023-03-13T15:25:42;25.00;54.60
18291;DHT22;9271;48.590;8.866;2023-03-13T15:28:13;24.50;54.40
18291;DHT22;9271;48.590;8.866;2023-03-13T15:30:41;23.70;56.20
18291;DHT22;9271;48.590;8.866;2023-03-13T15:33:12;23.40;57.10
18291;DHT22;9271;48.590;8.866;2023-03-13T15:35:39;23.10;57.30
18291;DHT22;9271;48.590;8.866;2023-03-13T15:38:11;23.40;57.40
18291;DHT22;9271;48.590;8.866;2023-03-13T15:40:38;24.30;56.30
18291;DHT22;9271;48.590;8.866;2023-03-13T15:43:05;24.70;55.50
18291;DHT22;9271;48.590;8.866;2023-03-13T15:45:33;24.50;55.40
18291;DHT22;9271;48.590;8.866;2023-03-13T15:48:01;23.50;56.40
18291;DHT22;9271;48.590;8.866;2023-03-13T15:50:29;22.60;58.60
18291;DHT22;9271;48.590;8.866;2023-03-13T15:52:56;22.60;58.80
18291;DHT22;9271;48.590;8.866;2023-03-13T15:55:25;22.50;59.30
18291;DHT22;9271;48.590;8.866;2023-03-13T15:57:52;22.50;60.10
18291;DHT22;9271;48.590;8.866;2023-03-13T16:00:21;22.10;62.30
18291;DHT22;9271;48.590;8.866;2023-03-13T16:02:48;22.00;63.70
18291;DHT22;9271;48.590;8.866;2023-03-13T16:05:15;22.20;63.70
18291;DHT22;9271;48.590;8.866;2023-03-13T16:07:43;22.60;63.20
18291;DHT22;9271;48.590;8.866;2023-03-13T16:10:15;23.10;63.00
18291;DHT22;9271;48.590;8.866;2023-03-13T16:12:42;23.70;61.60
18291;DHT22;9271;48.590;8.866;2023-03-13T16:15:09;23.80;61.20